Time;durP1;ratioP1;P1;durP2;ratioP2;P2;SDS_P1;SDS_P2;PMS_P1;PMS_P2;Temp;Humidity;BMP_temperature;BMP_pressure;BME280_temperature;BME280_humidity;BME280_pressure;Samples;Min_cycle;Max_cycle;Signal;HPM_P1;HPM_P2
2022/07/09 00:00:20;;;;;;;18.30;15.50;;;;;;;;;;1612645;30;21577;-67
2022/07/09 00:01:13;;;;;;;19.45;15.85;;;;;;;;;;1610681;30;21605;-67
2022/07/09 00:02:05;;;;;;;17.08;15.27;;;;;;;;;;1608700;30;22242;-67
2022/07/09 00:02:57;;;;;;;20.63;15.93;;;;;;;;;;1613031;30;21681;-66
2022/07/09 00:03:49;;;;;;;16.05;14.82;;;;;;;;;;1617329;30;21605;-66
2022/07/09 00:04:40;;;;;;;17.30;15.52;;;;;;;;;;1609854;30;21831;-66
2022/07/09 00:05:32;;;;;;;17.13;15.48;;;;;;;;;;1610902;30;21629;-67
2022/07/09 00:06:23;;;;;;;15.65;14.15;;;;;;;;;;1611412;30;21655;-67
2022/07/09 00:07:16;;;;;;;17.92;14.65;;;;;;;;;;1613849;30;21708;-67
2022/07/09 00:08:07;;;;;;;14.73;13.40;;;;;;;;;;1607478;30;22283;-67
2022/07/09 00:08:59;;;;;;;18.52;14.75;;;;;;;;;;1611333;30;21708;-66
2022/07/09 00:09:51;;;;;;;16.83;14.88;;;;;;;;;;1602996;30;21582;-67
2022/07/09 00:10:44;;;;;;;16.73;15.15;;;;;;;;;;1602174;30;22196;-67
2022/07/09 00:11:35;;;;;;;16.13;14.40;;;;;;;;;;1608513;30;22275;-68
2022/07/09 00:12:27;;;;;;;16.25;14.13;;;;;;;;;;1605534;30;22682;-67
2022/07/09 00:13:18;;;;;;;15.18;13.73;;;;;;;;;;1606773;30;22012;-67
2022/07/09 00:14:10;;;;;;;14.75;13.32;;;;;;;;;;1613227;30;21766;-67
2022/07/09 00:15:02;;;;;;;15.70;14.32;;;;;;;;;;1610644;30;21724;-67
2022/07/09 00:15:54;;;;;;;15.75;14.00;;;;;;;;;;1607435;30;21800;-67
2022/07/09 00:16:47;;;;;;;14.43;13.23;;;;;;;;;;1612894;30;21686;-67
2022/07/09 00:17:39;;;;;;;17.95;12.60;;;;;;;;;;1609194;30;22346;-67
2022/07/09 00:18:30;;;;;;;14.38;12.93;;;;;;;;;;1609289;30;22003;-67
2022/07/09 00:19:23;;;;;;;15.13;12.38;;;;;;;;;;1614727;30;21571;-67
2022/07/09 00:20:14;;;;;;;19.73;12.48;;;;;;;;;;1611956;30;21648;-67
2022/07/09 00:21:06;;;;;;;21.50;13.35;;;;;;;;;;1606788;30;22033;-66
2022/07/09 00:21:58;;;;;;;38.42;14.35;;;;;;;;;;1610882;30;22199;-66
2022/07/09 00:22:50;;;;;;;15.27;12.40;;;;;;;;;;1608821;30;22550;-67
2022/07/09 00:23:41;;;;;;;27.00;13.52;;;;;;;;;;1610434;30;21617;-67
2022/07/09 00:24:33;;;;;;;22.55;11.95;;;;;;;;;;1611535;30;21764;-67
2022/07/09 00:25:25;;;;;;;21.95;12.60;;;;;;;;;;1610087;30;21689;-67
2022/07/09 00:26:18;;;;;;;16.23;12.15;;;;;;;;;;1609394;30;21644;-67
2022/07/09 00:27:09;;;;;;;13.57;12.18;;;;;;;;;;1611776;30;22071;-67
2022/07/09 00:28:01;;;;;;;16.40;11.93;;;;;;;;;;1608214;30;22878;-66
2022/07/09 00:28:53;;;;;;;17.85;12.23;;;;;;;;;;1608459;30;22006;-67
2022/07/09 00:29:45;;;;;;;13.60;12.18;;;;;;;;;;1611474;30;22690;-66
2022/07/09 00:30:36;;;;;;;13.45;12.27;;;;;;;;;;1610219;30;22070;-67
2022/07/09 00:31:28;;;;;;;13.02;11.68;;;;;;;;;;1609323;30;22081;-67
2022/07/09 00:32:21;;;;;;;12.23;11.18;;;;;;;;;;1601765;30;22005;-66
2022/07/09 00:33:13;;;;;;;12.35;11.10;;;;;;;;;;1604623;30;22417;-68
2022/07/09 00:34:05;;;;;;;12.50;11.13;;;;;;;;;;1607414;30;21657;-66
2022/07/09 00:34:57;;;;;;;19.38;10.63;;;;;;;;;;1608527;30;23801;-67
2022/07/09 00:35:48;;;;;;;11.65;10.57;;;;;;;;;;1611281;30;21710;-66
2022/07/09 00:36:40;;;;;;;12.93;11.40;;;;;;;;;;1607892;30;21777;-67
2022/07/09 00:37:31;;;;;;;11.43;10.23;;;;;;;;;;1610100;30;21668;-67
2022/07/09 00:38:24;;;;;;;15.27;10.77;;;;;;;;;;1609066;30;21599;-67
2022/07/09 00:39:15;;;;;;;14.18;10.68;;;;;;;;;;1608555;30;21659;-67
2022/07/09 00:40:10;;;;;;;18.60;11.02;;;;;;;;;;1607260;30;22330;-66
2022/07/09 00:41:01;;;;;;;11.00;9.88;;;;;;;;;;1609911;30;21667;-67
2022/07/09 00:42:04;;;;;;;14.30;11.23;;;;;;;;;;1603753;30;21604;-67
2022/07/09 00:42:55;;;;;;;14.55;10.95;;;;;;;;;;1607902;30;21838;-67
2022/07/09 00:43:48;;;;;;;10.13;9.38;;;;;;;;;;1611727;30;21614;-66
2022/07/09 00:44:39;;;;;;;10.98;9.82;;;;;;;;;;1614301;30;21620;-67
2022/07/09 00:45:32;;;;;;;10.73;9.73;;;;;;;;;;1607833;30;21627;-67
2022/07/09 00:46:23;;;;;;;12.95;10.00;;;;;;;;;;1612442;30;22219;-67
2022/07/09 00:47:15;;;;;;;14.15;9.93;;;;;;;;;;1609843;30;22264;-67
2022/07/09 00:48:07;;;;;;;15.88;10.35;;;;;;;;;;1607207;30;21905;-67
2022/07/09 00:49:03;;;;;;;11.80;9.50;;;;;;;;;;1612392;30;21650;-67
2022/07/09 00:49:55;;;;;;;10.93;9.93;;;;;;;;;;1604904;30;21603;-67
2022/07/09 00:50:47;;;;;;;9.73;8.95;;;;;;;;;;1609892;30;21671;-68
2022/07/09 00:51:39;;;;;;;12.85;8.98;;;;;;;;;;1610645;30;21601;-67
2022/07/09 00:52:32;;;;;;;10.50;8.88;;;;;;;;;;1606197;30;22250;-67
2022/07/09 00:53:25;;;;;;;10.20;9.18;;;;;;;;;;1609436;30;22035;-67
2022/07/09 00:54:18;;;;;;;12.55;8.52;;;;;;;;;;1610913;30;22661;-67
2022/07/09 00:55:11;;;;;;;13.38;9.82;;;;;;;;;;1611653;30;21627;-67
2022/07/09 00:56:05;;;;;;;9.75;8.95;;;;;;;;;;1609948;30;21882;-67
2022/07/09 00:56:57;;;;;;;10.88;8.52;;;;;;;;;;1609994;30;21612;-67
2022/07/09 00:57:49;;;;;;;9.77;9.05;;;;;;;;;;1601377;30;22675;-67
2022/07/09 00:58:45;;;;;;;9.48;8.75;;;;;;;;;;1602125;30;21600;-67
2022/07/09 00:59:39;;;;;;;9.25;8.40;;;;;;;;;;1609081;30;22105;-67
2022/07/09 01:00:30;;;;;;;9.57;8.60;;;;;;;;;;1610305;30;21589;-68
2022/07/09 01:01:23;;;;;;;9.23;8.48;;;;;;;;;;1607993;30;22433;-67
2022/07/09 01:02:15;;;;;;;9.30;8.05;;;;;;;;;;1607333;30;21630;-66
2022/07/09 01:03:08;;;;;;;8.95;8.15;;;;;;;;;;1609326;30;21869;-67
2022/07/09 01:04:01;;;;;;;9.68;8.70;;;;;;;;;;1612341;30;21670;-67
2022/07/09 01:04:53;;;;;;;12.57;8.27;;;;;;;;;;1608189;30;21977;-66
2022/07/09 01:05:45;;;;;;;9.00;8.05;;;;;;;;;;1609423;30;21719;-68
2022/07/09 01:06:37;;;;;;;11.18;9.25;;;;;;;;;;1610201;30;21802;-67
2022/07/09 01:07:28;;;;;;;8.18;7.38;;;;;;;;;;1607985;30;22471;-67
2022/07/09 01:08:21;;;;;;;8.10;7.40;;;;;;;;;;1609560;30;21653;-67
2022/07/09 01:09:13;;;;;;;10.23;7.70;;;;;;;;;;1608106;30;21635;-67
2022/07/09 01:10:06;;;;;;;8.50;7.47;;;;;;;;;;1610707;30;21851;-69
2022/07/09 01:10:57;;;;;;;8.70;7.85;;;;;;;;;;1611363;30;22676;-66
2022/07/09 01:11:50;;;;;;;7.57;7.05;;;;;;;;;;1610432;30;22586;-67
2022/07/09 01:12:41;;;;;;;8.82;8.00;;;;;;;;;;1606389;30;21661;-67
2022/07/09 01:13:33;;;;;;;8.55;7.70;;;;;;;;;;1612363;30;21664;-67
2022/07/09 01:14:25;;;;;;;10.65;7.13;;;;;;;;;;1608258;30;21650;-67
2022/07/09 01:15:17;;;;;;;7.55;6.88;;;;;;;;;;1609568;30;22347;-67
2022/07/09 01:16:13;;;;;;;8.50;7.72;;;;;;;;;;1608744;30;21660;-67
2022/07/09 01:17:07;;;;;;;8.52;7.63;;;;;;;;;;1608981;30;22090;-66
2022/07/09 01:17:58;;;;;;;7.88;7.25;;;;;;;;;;1608663;30;22075;-66
2022/07/09 01:18:53;;;;;;;8.63;7.82;;;;;;;;;;1610442;30;21603;-66
2022/07/09 01:19:44;;;;;;;7.22;6.70;;;;;;;;;;1609133;30;21599;-67
2022/07/09 01:20:38;;;;;;;11.30;6.97;;;;;;;;;;1610214;30;22627;-67
2022/07/09 01:21:29;;;;;;;13.68;7.25;;;;;;;;;;1608273;30;22149;-67
2022/07/09 01:22:21;;;;;;;7.53;6.80;;;;;;;;;;1608812;30;22448;-66
2022/07/09 01:23:13;;;;;;;10.93;7.20;;;;;;;;;;1608333;30;21818;-67
2022/07/09 01:24:06;;;;;;;7.60;6.88;;;;;;;;;;1606964;30;21622;-68
2022/07/09 01:24:59;;;;;;;6.75;6.15;;;;;;;;;;1608579;30;21762;-67
2022/07/09 01:25:52;;;;;;;7.90;7.30;;;;;;;;;;1608097;30;21618;-67
2022/07/09 01:26:43;;;;;;;8.00;6.70;;;;;;;;;;1606854;30;22254;-67
2022/07/09 01:27:35;;;;;;;6.80;6.32;;;;;;;;;;1608964;30;22320;-67
2022/07/09 01:28:26;;;;;;;7.57;6.88;;;;;;;;;;1610168;30;22126;-66
2022/07/09 01:29:19;;;;;;;7.57;5.88;;;;;;;;;;1608963;30;21864;-66
2022/07/09 01:30:11;;;;;;;7.60;6.88;;;;;;;;;;1610738;30;21643;-67
2022/07/09 01:31:03;;;;;;;8.80;6.88;;;;;;;;;;1611113;30;21644;-67
2022/07/09 01:31:54;;;;;;;6.40;5.90;;;;;;;;;;1608467;30;21649;-67
2022/07/09 01:32:47;;;;;;;6.97;5.68;;;;;;;;;;1606216;30;21766;-67
2022/07/09 01:33:38;;;;;;;6.60;6.13;;;;;;;;;;1610754;30;21612;-67
2022/07/09 01:34:30;;;;;;;7.05;5.90;;;;;;;;;;1610576;30;21958;-66
2022/07/09 01:35:21;;;;;;;5.97;5.57;;;;;;;;;;1607205;30;21870;-66
2022/07/09 01:36:16;;;;;;;6.95;6.18;;;;;;;;;;1612443;30;21636;-67
2022/07/09 01:37:08;;;;;;;7.13;6.43;;;;;;;;;;1610314;30;22227;-67
2022/07/09 01:38:00;;;;;;;6.65;6.05;;;;;;;;;;1607989;30;21931;-67
2022/07/09 01:38:51;;;;;;;6.20;5.80;;;;;;;;;;1614106;30;21601;-66
2022/07/09 01:39:51;;;;;;;6.35;5.85;;;;;;;;;;1610619;30;21621;-68
2022/07/09 01:40:42;;;;;;;6.22;5.72;;;;;;;;;;1607327;30;22629;-66
2022/07/09 01:41:34;;;;;;;6.75;6.15;;;;;;;;;;1612161;30;22032;-67
2022/07/09 01:42:25;;;;;;;6.38;5.80;;;;;;;;;;1610289;30;21692;-66
2022/07/09 01:43:18;;;;;;;5.97;5.47;;;;;;;;;;1606757;30;21562;-67
2022/07/09 01:44:09;;;;;;;5.88;5.47;;;;;;;;;;1605357;30;22033;-67
2022/07/09 01:45:01;;;;;;;5.82;5.40;;;;;;;;;;1601440;30;21668;-67
2022/07/09 01:45:52;;;;;;;5.65;5.25;;;;;;;;;;1604409;30;22296;-67
2022/07/09 01:46:45;;;;;;;6.13;5.60;;;;;;;;;;1612949;30;21765;-67
2022/07/09 01:47:36;;;;;;;7.35;5.18;;;;;;;;;;1607786;30;22208;-66
2022/07/09 01:48:28;;;;;;;5.88;5.40;;;;;;;;;;1607621;30;21645;-67
2022/07/09 01:49:20;;;;;;;5.75;5.28;;;;;;;;;;1609753;30;21955;-67
2022/07/09 01:50:12;;;;;;;5.78;5.38;;;;;;;;;;1608933;30;21601;-67
2022/07/09 01:51:04;;;;;;;5.60;5.10;;;;;;;;;;1606300;30;21635;-67
2022/07/09 01:51:57;;;;;;;6.68;5.40;;;;;;;;;;1611302;30;22019;-67
2022/07/09 01:52:50;;;;;;;5.72;5.35;;;;;;;;;;1609356;30;22086;-67
2022/07/09 01:53:42;;;;;;;5.57;5.07;;;;;;;;;;1607875;30;21634;-66
2022/07/09 01:54:33;;;;;;;5.88;5.45;;;;;;;;;;1610202;30;21561;-67
2022/07/09 01:55:26;;;;;;;5.53;5.22;;;;;;;;;;1608811;30;22485;-67
2022/07/09 01:56:17;;;;;;;5.65;5.05;;;;;;;;;;1605775;30;21711;-66
2022/07/09 01:57:09;;;;;;;5.80;5.22;;;;;;;;;;1610547;30;22073;-67
2022/07/09 01:58:00;;;;;;;6.00;4.72;;;;;;;;;;1610755;30;21627;-66
2022/07/09 01:58:52;;;;;;;5.47;5.03;;;;;;;;;;1608409;30;21589;-66
2022/07/09 01:59:43;;;;;;;6.35;4.82;;;;;;;;;;1609450;30;22398;-66
2022/07/09 02:00:36;;;;;;;5.53;5.13;;;;;;;;;;1614113;30;21690;-67
2022/07/09 02:01:27;;;;;;;4.75;4.40;;;;;;;;;;1610015;30;21857;-66
2022/07/09 02:02:18;;;;;;;5.80;5.30;;;;;;;;;;1605167;30;22026;-68
2022/07/09 02:03:10;;;;;;;6.55;4.97;;;;;;;;;;1606993;30;22002;-67
2022/07/09 02:04:01;;;;;;;5.47;4.68;;;;;;;;;;1610770;30;21627;-67
2022/07/09 02:04:54;;;;;;;5.38;4.88;;;;;;;;;;1610435;30;22036;-67
2022/07/09 02:05:45;;;;;;;5.25;4.75;;;;;;;;;;1611250;30;21764;-67
2022/07/09 02:06:38;;;;;;;5.05;4.63;;;;;;;;;;1607778;30;21702;-67
2022/07/09 02:07:30;;;;;;;5.40;4.82;;;;;;;;;;1612185;30;21657;-67
2022/07/09 02:08:23;;;;;;;5.68;4.60;;;;;;;;;;1610902;30;22010;-67
2022/07/09 02:09:14;;;;;;;4.63;4.28;;;;;;;;;;1609295;30;22010;-67
2022/07/09 02:10:08;;;;;;;5.50;5.00;;;;;;;;;;1609480;30;21568;-68
2022/07/09 02:10:59;;;;;;;5.10;4.65;;;;;;;;;;1608562;30;21921;-67
2022/07/09 02:11:51;;;;;;;5.25;4.72;;;;;;;;;;1601330;30;22011;-67
2022/07/09 02:12:42;;;;;;;6.63;4.60;;;;;;;;;;1607174;30;22226;-65
2022/07/09 02:13:35;;;;;;;5.03;4.38;;;;;;;;;;1610621;30;21618;-67
2022/07/09 02:14:26;;;;;;;5.13;4.72;;;;;;;;;;1609786;30;21621;-66
2022/07/09 02:15:18;;;;;;;4.57;4.13;;;;;;;;;;1608613;30;21659;-67
2022/07/09 02:16:10;;;;;;;4.50;4.20;;;;;;;;;;1606300;30;21628;-67
2022/07/09 02:17:02;;;;;;;5.57;4.57;;;;;;;;;;1600464;30;21758;-67
2022/07/09 02:17:53;;;;;;;6.03;4.68;;;;;;;;;;1602221;30;21617;-67
2022/07/09 02:18:46;;;;;;;5.18;4.68;;;;;;;;;;1606191;30;21724;-66
2022/07/09 02:19:37;;;;;;;4.82;4.53;;;;;;;;;;1611849;30;21822;-67
2022/07/09 02:20:29;;;;;;;4.97;4.57;;;;;;;;;;1603924;30;21596;-67
2022/07/09 02:21:21;;;;;;;4.63;4.00;;;;;;;;;;1595033;30;21595;-67
2022/07/09 02:22:13;;;;;;;4.78;4.47;;;;;;;;;;1602314;30;22403;-67
2022/07/09 02:23:06;;;;;;;4.53;4.13;;;;;;;;;;1606701;30;22027;-67
2022/07/09 02:23:58;;;;;;;4.63;4.07;;;;;;;;;;1608793;30;21951;-68
2022/07/09 02:24:50;;;;;;;4.43;4.13;;;;;;;;;;1605054;30;21648;-68
2022/07/09 02:25:42;;;;;;;5.18;4.07;;;;;;;;;;1609964;30;21771;-68
2022/07/09 02:26:33;;;;;;;4.40;4.10;;;;;;;;;;1609650;30;21934;-67
2022/07/09 02:27:26;;;;;;;4.22;3.92;;;;;;;;;;1614151;30;21663;-67
2022/07/09 02:28:17;;;;;;;4.50;4.20;;;;;;;;;;1610666;30;21705;-68
2022/07/09 02:29:09;;;;;;;4.20;3.90;;;;;;;;;;1605863;30;21810;-68
2022/07/09 02:30:00;;;;;;;7.22;4.30;;;;;;;;;;1609808;30;21570;-67
2022/07/09 02:30:53;;;;;;;5.20;4.22;;;;;;;;;;1604022;30;21923;-67
2022/07/09 02:31:44;;;;;;;4.47;4.18;;;;;;;;;;1602769;30;22494;-66
2022/07/09 02:32:38;;;;;;;4.90;4.60;;;;;;;;;;1604067;30;21753;-66
2022/07/09 02:33:31;;;;;;;5.03;3.75;;;;;;;;;;1611359;30;21627;-67
2022/07/09 02:34:23;;;;;;;4.20;3.80;;;;;;;;;;1611068;30;21601;-68
2022/07/09 02:35:14;;;;;;;4.20;3.90;;;;;;;;;;1605061;30;21606;-67
2022/07/09 02:36:07;;;;;;;4.00;3.63;;;;;;;;;;1612817;30;22077;-67
2022/07/09 02:36:58;;;;;;;4.32;4.03;;;;;;;;;;1608527;30;21556;-67
2022/07/09 02:37:50;;;;;;;4.50;3.60;;;;;;;;;;1606661;30;22123;-67
2022/07/09 02:38:43;;;;;;;5.65;3.83;;;;;;;;;;1610400;30;21624;-67
2022/07/09 02:39:36;;;;;;;4.07;3.78;;;;;;;;;;1610206;30;21756;-68
2022/07/09 02:40:27;;;;;;;4.05;3.75;;;;;;;;;;1609510;30;21656;-67
2022/07/09 02:41:20;;;;;;;4.13;3.78;;;;;;;;;;1611533;30;22529;-68
2022/07/09 02:42:11;;;;;;;3.75;3.45;;;;;;;;;;1609991;30;21610;-67
2022/07/09 02:43:03;;;;;;;4.20;3.75;;;;;;;;;;1608309;30;21558;-67
2022/07/09 02:43:54;;;;;;;7.10;3.72;;;;;;;;;;1611492;30;21773;-67
2022/07/09 02:44:46;;;;;;;4.57;3.70;;;;;;;;;;1607566;30;21654;-67
2022/07/09 02:45:38;;;;;;;3.72;3.50;;;;;;;;;;1608655;30;21983;-66
2022/07/09 02:46:30;;;;;;;4.05;3.75;;;;;;;;;;1608814;30;22458;-67
2022/07/09 02:47:21;;;;;;;5.03;4.30;;;;;;;;;;1610452;30;21653;-67
2022/07/09 02:48:13;;;;;;;3.58;3.28;;;;;;;;;;1607371;30;22008;-68
2022/07/09 02:49:04;;;;;;;5.35;3.78;;;;;;;;;;1611447;30;22117;-66
2022/07/09 02:49:57;;;;;;;4.65;4.05;;;;;;;;;;1609186;30;21700;-66
2022/07/09 02:50:50;;;;;;;3.65;3.42;;;;;;;;;;1607127;30;22284;-67
2022/07/09 02:51:42;;;;;;;3.75;3.45;;;;;;;;;;1610344;30;21709;-67
2022/07/09 02:52:33;;;;;;;3.90;3.60;;;;;;;;;;1611853;30;21688;-67
2022/07/09 02:53:25;;;;;;;3.55;3.25;;;;;;;;;;1609887;30;21742;-67
2022/07/09 02:54:18;;;;;;;4.43;3.38;;;;;;;;;;1609726;30;22597;-67
2022/07/09 02:55:10;;;;;;;4.40;3.17;;;;;;;;;;1608502;30;22174;-67
2022/07/09 02:56:02;;;;;;;6.10;3.95;;;;;;;;;;1607336;30;22006;-67
2022/07/09 02:56:54;;;;;;;3.83;3.40;;;;;;;;;;1609701;30;21759;-67
2022/07/09 02:57:45;;;;;;;5.22;3.72;;;;;;;;;;1608906;30;21616;-67
2022/07/09 02:58:38;;;;;;;3.80;3.50;;;;;;;;;;1608477;30;22361;-68
2022/07/09 02:59:29;;;;;;;4.28;3.88;;;;;;;;;;1605940;30;21680;-67
2022/07/09 03:00:21;;;;;;;5.35;3.88;;;;;;;;;;1609221;30;22475;-67
2022/07/09 03:01:13;;;;;;;4.18;3.88;;;;;;;;;;1611501;30;21788;-67
2022/07/09 03:02:06;;;;;;;3.33;3.08;;;;;;;;;;1607441;30;21969;-67
2022/07/09 03:02:57;;;;;;;5.97;3.72;;;;;;;;;;1611402;30;21614;-67
2022/07/09 03:03:49;;;;;;;3.50;3.20;;;;;;;;;;1610151;30;22476;-67
2022/07/09 03:04:41;;;;;;;3.25;2.95;;;;;;;;;;1609713;30;21628;-67
2022/07/09 03:05:34;;;;;;;3.45;3.20;;;;;;;;;;1608486;30;21626;-67
2022/07/09 03:06:25;;;;;;;5.13;3.47;;;;;;;;;;1610955;30;21974;-67
2022/07/09 03:07:18;;;;;;;3.30;3.03;;;;;;;;;;1609225;30;21708;-67
2022/07/09 03:08:09;;;;;;;3.80;3.50;;;;;;;;;;1607199;30;21746;-67
2022/07/09 03:09:01;;;;;;;5.70;3.20;;;;;;;;;;1609839;30;21678;-67
2022/07/09 03:09:54;;;;;;;3.35;3.05;;;;;;;;;;1609482;30;21601;-67
2022/07/09 03:10:46;;;;;;;3.70;3.20;;;;;;;;;;1606975;30;21862;-67
2022/07/09 03:11:37;;;;;;;3.67;3.38;;;;;;;;;;1609787;30;21640;-67
2022/07/09 03:12:30;;;;;;;2.92;2.72;;;;;;;;;;1610260;30;22064;-68
2022/07/09 03:13:21;;;;;;;5.20;3.42;;;;;;;;;;1608719;30;21599;-68
2022/07/09 03:14:13;;;;;;;3.28;3.08;;;;;;;;;;1608613;30;22079;-67
2022/07/09 03:15:06;;;;;;;3.35;3.10;;;;;;;;;;1609277;30;22248;-68
2022/07/09 03:15:58;;;;;;;4.28;3.35;;;;;;;;;;1609094;30;22622;-68
2022/07/09 03:16:50;;;;;;;3.80;3.33;;;;;;;;;;1612972;30;21670;-68
2022/07/09 03:17:42;;;;;;;3.25;3.05;;;;;;;;;;1609084;30;21611;-66
2022/07/09 03:18:34;;;;;;;3.03;2.72;;;;;;;;;;1611317;30;21749;-66
2022/07/09 03:19:26;;;;;;;3.97;3.00;;;;;;;;;;1612179;30;21681;-67
2022/07/09 03:20:17;;;;;;;4.85;3.45;;;;;;;;;;1603770;30;21704;-68
2022/07/09 03:21:11;;;;;;;3.55;3.10;;;;;;;;;;1603265;30;21600;-68
2022/07/09 03:22:03;;;;;;;3.38;3.13;;;;;;;;;;1609370;30;22446;-68
2022/07/09 03:22:55;;;;;;;2.75;2.55;;;;;;;;;;1608737;30;22354;-68
2022/07/09 03:23:47;;;;;;;3.22;3.00;;;;;;;;;;1615575;30;21977;-68
2022/07/09 03:24:38;;;;;;;2.97;2.78;;;;;;;;;;1609230;30;22127;-68
2022/07/09 03:25:32;;;;;;;3.58;3.28;;;;;;;;;;1612181;30;22021;-68
2022/07/09 03:26:23;;;;;;;3.03;2.70;;;;;;;;;;1608321;30;21602;-68
2022/07/09 03:27:16;;;;;;;4.97;3.13;;;;;;;;;;1607945;30;22051;-68
2022/07/09 03:28:07;;;;;;;4.57;3.08;;;;;;;;;;1611581;30;21643;-68
2022/07/09 03:28:59;;;;;;;7.80;3.50;;;;;;;;;;1610937;30;21756;-66
2022/07/09 03:29:50;;;;;;;5.78;2.90;;;;;;;;;;1609742;30;21592;-66
2022/07/09 03:30:42;;;;;;;3.75;2.90;;;;;;;;;;1610234;30;22534;-67
2022/07/09 03:31:34;;;;;;;4.03;3.17;;;;;;;;;;1608771;30;21731;-67
2022/07/09 03:32:26;;;;;;;4.18;2.92;;;;;;;;;;1606755;30;21598;-67
2022/07/09 03:33:17;;;;;;;4.30;3.25;;;;;;;;;;1611327;30;21618;-67
2022/07/09 03:34:09;;;;;;;4.10;2.92;;;;;;;;;;1608580;30;21871;-66
2022/07/09 03:35:01;;;;;;;2.90;2.70;;;;;;;;;;1609800;30;22042;-67
2022/07/09 03:35:55;;;;;;;7.70;2.65;;;;;;;;;;1610384;30;22379;-67
2022/07/09 03:36:47;;;;;;;3.10;2.90;;;;;;;;;;1610295;30;21770;-67
2022/07/09 03:37:38;;;;;;;3.42;2.80;;;;;;;;;;1608046;30;21676;-67
2022/07/09 03:38:30;;;;;;;5.88;2.88;;;;;;;;;;1610526;30;22656;-67
2022/07/09 03:39:22;;;;;;;4.65;3.03;;;;;;;;;;1610541;30;22774;-67
2022/07/09 03:40:14;;;;;;;3.47;2.95;;;;;;;;;;1607911;30;21569;-67
2022/07/09 03:41:06;;;;;;;4.68;2.95;;;;;;;;;;1614466;30;21958;-67
2022/07/09 03:41:59;;;;;;;3.45;3.10;;;;;;;;;;1609152;30;22216;-67
2022/07/09 03:42:50;;;;;;;2.78;2.58;;;;;;;;;;1606171;30;21619;-67
2022/07/09 03:43:42;;;;;;;4.85;2.60;;;;;;;;;;1610483;30;21666;-67
2022/07/09 03:44:33;;;;;;;2.97;2.10;;;;;;;;;;1609905;30;21711;-67
2022/07/09 03:45:26;;;;;;;3.55;3.13;;;;;;;;;;1609552;30;21654;-67
2022/07/09 03:46:17;;;;;;;4.22;2.97;;;;;;;;;;1610052;30;21671;-67
2022/07/09 03:47:09;;;;;;;3.22;2.95;;;;;;;;;;1609382;30;22656;-67
2022/07/09 03:48:00;;;;;;;5.68;2.90;;;;;;;;;;1610299;30;22679;-67
2022/07/09 03:48:52;;;;;;;8.73;3.30;;;;;;;;;;1609230;30;22693;-68
2022/07/09 03:49:44;;;;;;;6.95;2.80;;;;;;;;;;1609394;30;21597;-67
2022/07/09 03:50:35;;;;;;;2.97;2.78;;;;;;;;;;1611422;30;21740;-66
2022/07/09 03:51:27;;;;;;;3.00;2.55;;;;;;;;;;1606813;30;22414;-67
2022/07/09 03:52:18;;;;;;;2.95;2.47;;;;;;;;;;1612012;30;21623;-67
2022/07/09 03:53:11;;;;;;;6.93;2.53;;;;;;;;;;1609784;30;21604;-67
2022/07/09 03:54:02;;;;;;;3.53;3.03;;;;;;;;;;1604665;30;21879;-67
2022/07/09 03:54:53;;;;;;;3.13;2.92;;;;;;;;;;1606317;30;22064;-67
2022/07/09 03:55:46;;;;;;;2.92;2.72;;;;;;;;;;1606162;30;21685;-67
2022/07/09 03:56:38;;;;;;;2.75;2.40;;;;;;;;;;1606102;30;21882;-68
2022/07/09 03:57:30;;;;;;;2.72;2.35;;;;;;;;;;1611904;30;21726;-68
2022/07/09 03:58:22;;;;;;;2.70;2.50;;;;;;;;;;1608832;30;21705;-68
2022/07/09 03:59:14;;;;;;;3.72;3.42;;;;;;;;;;1607724;30;22615;-68
2022/07/09 04:00:07;;;;;;;2.95;2.40;;;;;;;;;;1610173;30;21584;-68
2022/07/09 04:00:59;;;;;;;2.80;2.60;;;;;;;;;;1608568;30;21652;-66
2022/07/09 04:01:50;;;;;;;2.85;2.55;;;;;;;;;;1607531;30;22024;-67
2022/07/09 04:02:43;;;;;;;2.80;2.60;;;;;;;;;;1607911;30;22459;-67
2022/07/09 04:03:34;;;;;;;3.63;2.35;;;;;;;;;;1612409;30;21617;-67
2022/07/09 04:04:26;;;;;;;6.20;2.38;;;;;;;;;;1609585;30;21581;-66
2022/07/09 04:05:18;;;;;;;4.60;2.63;;;;;;;;;;1608309;30;22671;-66
2022/07/09 04:06:10;;;;;;;5.05;3.10;;;;;;;;;;1611126;30;21604;-66
2022/07/09 04:07:01;;;;;;;6.28;2.50;;;;;;;;;;1608393;30;21618;-68
2022/07/09 04:07:53;;;;;;;2.83;2.55;;;;;;;;;;1606904;30;21798;-66
2022/07/09 04:08:45;;;;;;;3.05;2.75;;;;;;;;;;1610802;30;22395;-67
2022/07/09 04:09:37;;;;;;;2.88;2.67;;;;;;;;;;1608483;30;21762;-65
2022/07/09 04:10:28;;;;;;;4.65;2.58;;;;;;;;;;1609969;30;21712;-67
2022/07/09 04:11:20;;;;;;;3.10;2.90;;;;;;;;;;1610515;30;21672;-68
2022/07/09 04:12:13;;;;;;;3.03;2.72;;;;;;;;;;1608465;30;21604;-68
2022/07/09 04:13:04;;;;;;;2.70;2.50;;;;;;;;;;1609136;30;21595;-66
2022/07/09 04:13:56;;;;;;;2.95;2.63;;;;;;;;;;1610894;30;21603;-67
2022/07/09 04:14:48;;;;;;;2.88;2.67;;;;;;;;;;1609397;30;22293;-66
2022/07/09 04:15:40;;;;;;;4.85;2.80;;;;;;;;;;1606874;30;21780;-67
2022/07/09 04:16:31;;;;;;;2.85;2.65;;;;;;;;;;1610625;30;21593;-67
2022/07/09 04:17:23;;;;;;;4.38;2.22;;;;;;;;;;1607896;30;21701;-68
2022/07/09 04:18:15;;;;;;;5.03;2.65;;;;;;;;;;1608866;30;21641;-67
2022/07/09 04:19:08;;;;;;;2.53;2.33;;;;;;;;;;1610819;30;21854;-67
2022/07/09 04:19:59;;;;;;;2.42;2.22;;;;;;;;;;1607971;30;21718;-67
2022/07/09 04:20:52;;;;;;;2.83;2.08;;;;;;;;;;1608092;30;22397;-68
2022/07/09 04:21:43;;;;;;;3.95;2.55;;;;;;;;;;1612709;30;22333;-67
2022/07/09 04:22:35;;;;;;;4.57;2.53;;;;;;;;;;1607083;30;21879;-68
2022/07/09 04:23:27;;;;;;;5.95;2.63;;;;;;;;;;1610050;30;21682;-67
2022/07/09 04:24:19;;;;;;;2.33;2.13;;;;;;;;;;1610369;30;22548;-67
2022/07/09 04:25:11;;;;;;;1.98;1.88;;;;;;;;;;1607542;30;21680;-67
2022/07/09 04:26:03;;;;;;;2.55;2.35;;;;;;;;;;1607490;30;21661;-67
2022/07/09 04:26:55;;;;;;;2.75;2.55;;;;;;;;;;1608897;30;21650;-68
2022/07/09 04:27:48;;;;;;;4.68;2.17;;;;;;;;;;1608903;30;21973;-68
2022/07/09 04:28:39;;;;;;;2.50;2.30;;;;;;;;;;1610132;30;21565;-68
2022/07/09 04:29:32;;;;;;;2.38;2.17;;;;;;;;;;1610814;30;21587;-67
2022/07/09 04:30:23;;;;;;;2.63;2.42;;;;;;;;;;1608982;30;21690;-67
2022/07/09 04:31:16;;;;;;;2.88;2.05;;;;;;;;;;1609150;30;21918;-68
2022/07/09 04:32:08;;;;;;;4.72;2.75;;;;;;;;;;1607738;30;22621;-67
2022/07/09 04:33:01;;;;;;;2.25;2.05;;;;;;;;;;1606762;30;21642;-68
2022/07/09 04:33:52;;;;;;;2.15;2.00;;;;;;;;;;1613406;30;22244;-67
2022/07/09 04:34:44;;;;;;;2.92;2.63;;;;;;;;;;1610986;30;21672;-66
2022/07/09 04:35:36;;;;;;;4.90;2.13;;;;;;;;;;1611337;30;22001;-67
2022/07/09 04:36:29;;;;;;;3.35;2.50;;;;;;;;;;1610041;30;22086;-67
2022/07/09 04:37:20;;;;;;;2.97;2.13;;;;;;;;;;1611485;30;21671;-67
2022/07/09 04:38:13;;;;;;;4.10;2.53;;;;;;;;;;1611162;30;21683;-67
2022/07/09 04:39:05;;;;;;;3.33;2.15;;;;;;;;;;1609311;30;21664;-67
2022/07/09 04:39:57;;;;;;;2.05;1.90;;;;;;;;;;1610215;30;21571;-68
2022/07/09 04:40:48;;;;;;;5.05;2.55;;;;;;;;;;1609016;30;22514;-68
2022/07/09 04:41:40;;;;;;;2.50;2.30;;;;;;;;;;1609501;30;21648;-67
2022/07/09 04:42:31;;;;;;;2.63;2.42;;;;;;;;;;1600517;30;21604;-67
2022/07/09 04:43:25;;;;;;;3.13;2.80;;;;;;;;;;1603334;30;21627;-67
2022/07/09 04:44:16;;;;;;;3.22;2.00;;;;;;;;;;1605594;30;21656;-67
2022/07/09 04:45:10;;;;;;;2.33;2.22;;;;;;;;;;1612296;30;21911;-67
2022/07/09 04:46:02;;;;;;;3.75;2.70;;;;;;;;;;1608518;30;21877;-67
2022/07/09 04:46:53;;;;;;;3.95;2.47;;;;;;;;;;1607956;30;21983;-67
2022/07/09 04:47:45;;;;;;;2.40;2.20;;;;;;;;;;1611795;30;22054;-67
2022/07/09 04:48:36;;;;;;;3.53;2.25;;;;;;;;;;1607363;30;21678;-67
2022/07/09 04:49:29;;;;;;;3.05;2.30;;;;;;;;;;1608050;30;21873;-67
2022/07/09 04:50:20;;;;;;;2.88;2.22;;;;;;;;;;1610495;30;21686;-67
2022/07/09 04:51:12;;;;;;;3.42;2.35;;;;;;;;;;1603679;30;21745;-67
2022/07/09 04:52:05;;;;;;;2.72;2.40;;;;;;;;;;1609432;30;21620;-67
2022/07/09 04:52:57;;;;;;;2.20;2.10;;;;;;;;;;1607863;30;22400;-68
2022/07/09 04:53:48;;;;;;;2.17;1.98;;;;;;;;;;1609274;30;21598;-68
2022/07/09 04:54:40;;;;;;;2.00;1.90;;;;;;;;;;1611102;30;22792;-67
2022/07/09 04:55:31;;;;;;;2.92;2.10;;;;;;;;;;1609654;30;21652;-66
2022/07/09 04:56:24;;;;;;;4.85;2.05;;;;;;;;;;1614693;30;21656;-66
2022/07/09 04:57:15;;;;;;;2.70;1.88;;;;;;;;;;1610113;30;21613;-66
2022/07/09 04:58:07;;;;;;;4.93;2.40;;;;;;;;;;1606577;30;21877;-67
2022/07/09 04:59:02;;;;;;;3.08;2.42;;;;;;;;;;1611511;30;22269;-67
2022/07/09 04:59:59;;;;;;;5.03;2.00;;;;;;;;;;1611771;30;21726;-66
2022/07/09 05:00:51;;;;;;;2.03;1.85;;;;;;;;;;1608561;30;21717;-67
2022/07/09 05:01:43;;;;;;;2.50;2.30;;;;;;;;;;1610464;30;21620;-67
2022/07/09 05:02:34;;;;;;;2.33;2.10;;;;;;;;;;1610445;30;21629;-66
2022/07/09 05:03:26;;;;;;;2.42;2.22;;;;;;;;;;1610676;30;21879;-66
2022/07/09 05:04:17;;;;;;;2.95;2.30;;;;;;;;;;1607605;30;22273;-67
2022/07/09 05:05:10;;;;;;;5.60;2.15;;;;;;;;;;1609733;30;21778;-67
2022/07/09 05:06:01;;;;;;;3.63;2.15;;;;;;;;;;1611217;30;22466;-67
2022/07/09 05:06:54;;;;;;;2.40;2.20;;;;;;;;;;1609598;30;22414;-67
2022/07/09 05:07:45;;;;;;;2.47;1.90;;;;;;;;;;1607745;30;22426;-67
2022/07/09 05:08:37;;;;;;;2.08;1.88;;;;;;;;;;1600683;30;21602;-67
2022/07/09 05:09:29;;;;;;;2.88;2.38;;;;;;;;;;1603223;30;21627;-67
2022/07/09 05:10:21;;;;;;;2.50;2.03;;;;;;;;;;1605815;30;22313;-67